sensor_id;sensor_type;location;lat;lon;timestamp;temperature;humidity
27896;DHT22;15241;48.374;10.876;2023-12-20T00:00:11;7.60;95.70
27896;DHT22;15241;48.374;10.876;2023-12-20T00:05:09;7.70;95.80
27896;DHT22;15241;48.374;10.876;2023-12-20T00:10:09;7.70;96.00
27896;DHT22;15241;48.374;10.876;2023-12-20T00:15:09;7.70;96.30
27896;DHT22;15241;48.374;10.876;2023-12-20T00:20:09;7.80;96.30
27896;DHT22;15241;48.374;10.876;2023-12-20T00:25:08;7.80;96.30
27896;DHT22;15241;48.374;10.876;2023-12-20T00:30:09;7.90;96.00
27896;DHT22;15241;48.374;10.876;2023-12-20T00:35:08;7.90;96.00
27896;DHT22;15241;48.374;10.876;2023-12-20T00:40:09;7.90;96.10
27896;DHT22;15241;48.374;10.876;2023-12-20T00:45:09;7.90;96.20
27896;DHT22;15241;48.374;10.876;2023-12-20T00:50:09;7.80;96.20
27896;DHT22;15241;48.374;10.876;2023-12-20T00:55:08;7.80;96.50
27896;DHT22;15241;48.374;10.876;2023-12-20T01:00:08;7.80;96.80
27896;DHT22;15241;48.374;10.876;2023-12-20T01:05:08;7.70;97.40
27896;DHT22;15241;48.374;10.876;2023-12-20T01:10:08;7.80;97.60
27896;DHT22;15241;48.374;10.876;2023-12-20T01:15:08;7.80;97.80
27896;DHT22;15241;48.374;10.876;2023-12-20T01:20:09;7.80;98.10
27896;DHT22;15241;48.374;10.876;2023-12-20T01:25:08;7.70;98.50
27896;DHT22;15241;48.374;10.876;2023-12-20T01:35:26;7.70;99.40
27896;DHT22;15241;48.374;10.876;2023-12-20T01:40:25;7.70;99.60
27896;DHT22;15241;48.374;10.876;2023-12-20T01:45:23;7.70;99.40
27896;DHT22;15241;48.374;10.876;2023-12-20T01:50:22;7.60;99.50
27896;DHT22;15241;48.374;10.876;2023-12-20T01:55:20;7.50;99.70
27896;DHT22;15241;48.374;10.876;2023-12-20T02:00:19;7.50;99.70
27896;DHT22;15241;48.374;10.876;2023-12-20T02:05:19;7.50;99.70
27896;DHT22;15241;48.374;10.876;2023-12-20T02:10:18;7.60;99.80
27896;DHT22;15241;48.374;10.876;2023-12-20T02:15:17;7.30;99.90
27896;DHT22;15241;48.374;10.876;2023-12-20T02:20:16;7.40;99.90
27896;DHT22;15241;48.374;10.876;2023-12-20T02:25:15;7.40;99.90
27896;DHT22;15241;48.374;10.876;2023-12-20T02:30:13;7.40;99.90
27896;DHT22;15241;48.374;10.876;2023-12-20T02:35:11;7.30;99.90
27896;DHT22;15241;48.374;10.876;2023-12-20T02:40:11;7.20;99.90
27896;DHT22;15241;48.374;10.876;2023-12-20T02:45:10;7.20;99.90
27896;DHT22;15241;48.374;10.876;2023-12-20T02:50:27;7.10;99.90
27896;DHT22;15241;48.374;10.876;2023-12-20T02:55:25;7.00;99.90
27896;DHT22;15241;48.374;10.876;2023-12-20T03:00:24;7.00;99.90
27896;DHT22;15241;48.374;10.876;2023-12-20T03:05:22;7.00;99.90
27896;DHT22;15241;48.374;10.876;2023-12-20T03:10:20;6.90;99.90
27896;DHT22;15241;48.374;10.876;2023-12-20T03:15:19;6.80;99.90
27896;DHT22;15241;48.374;10.876;2023-12-20T03:20:17;6.70;99.90
27896;DHT22;15241;48.374;10.876;2023-12-20T03:25:16;6.50;99.90
27896;DHT22;15241;48.374;10.876;2023-12-20T03:30:14;6.60;99.90
27896;DHT22;15241;48.374;10.876;2023-12-20T03:35:13;6.50;99.90
27896;DHT22;15241;48.374;10.876;2023-12-20T03:40:12;6.50;99.90
27896;DHT22;15241;48.374;10.876;2023-12-20T03:45:11;6.50;99.90
27896;DHT22;15241;48.374;10.876;2023-12-20T03:50:09;6.40;99.90
27896;DHT22;15241;48.374;10.876;2023-12-20T03:55:08;6.30;99.90
27896;DHT22;15241;48.374;10.876;2023-12-20T04:00:09;6.20;99.90
27896;DHT22;15241;48.374;10.876;2023-12-20T04:05:09;6.20;99.90
27896;DHT22;15241;48.374;10.876;2023-12-20T04:10:09;6.20;99.90
27896;DHT22;15241;48.374;10.876;2023-12-20T04:15:09;6.20;99.90
27896;DHT22;15241;48.374;10.876;2023-12-20T04:20:10;6.20;99.90
27896;DHT22;15241;48.374;10.876;2023-12-20T04:25:09;6.10;99.90
27896;DHT22;15241;48.374;10.876;2023-12-20T04:30:10;6.10;99.90
27896;DHT22;15241;48.374;10.876;2023-12-20T04:35:08;6.10;99.90
27896;DHT22;15241;48.374;10.876;2023-12-20T04:40:09;6.10;99.90
27896;DHT22;15241;48.374;10.876;2023-12-20T04:45:09;6.10;99.90
27896;DHT22;15241;48.374;10.876;2023-12-20T04:50:10;6.00;99.90
27896;DHT22;15241;48.374;10.876;2023-12-20T04:55:08;6.00;99.90
27896;DHT22;15241;48.374;10.876;2023-12-20T05:00:09;6.10;99.90
27896;DHT22;15241;48.374;10.876;2023-12-20T05:05:09;6.10;99.90
27896;DHT22;15241;48.374;10.876;2023-12-20T05:10:09;6.00;99.90
27896;DHT22;15241;48.374;10.876;2023-12-20T05:15:09;6.00;99.90
27896;DHT22;15241;48.374;10.876;2023-12-20T05:20:09;6.00;99.90
27896;DHT22;15241;48.374;10.876;2023-12-20T05:25:08;6.00;99.90
27896;DHT22;15241;48.374;10.876;2023-12-20T05:30:09;6.10;99.90
27896;DHT22;15241;48.374;10.876;2023-12-20T05:35:08;6.00;99.90
27896;DHT22;15241;48.374;10.876;2023-12-20T05:40:09;6.00;99.90
27896;DHT22;15241;48.374;10.876;2023-12-20T05:45:09;6.00;99.90
27896;DHT22;15241;48.374;10.876;2023-12-20T05:50:09;5.90;99.90
27896;DHT22;15241;48.374;10.876;2023-12-20T05:55:08;6.00;99.90
27896;DHT22;15241;48.374;10.876;2023-12-20T06:00:09;5.90;99.90
27896;DHT22;15241;48.374;10.876;2023-12-20T06:05:08;6.00;99.90
27896;DHT22;15241;48.374;10.876;2023-12-20T06:10:09;6.00;99.90
27896;DHT22;15241;48.374;10.876;2023-12-20T06:15:09;6.00;99.90
27896;DHT22;15241;48.374;10.876;2023-12-20T06:20:11;5.90;99.90
27896;DHT22;15241;48.374;10.876;2023-12-20T06:25:10;5.80;99.90
27896;DHT22;15241;48.374;10.876;2023-12-20T06:30:10;5.70;99.90
27896;DHT22;15241;48.374;10.876;2023-12-20T06:35:09;5.70;99.90
27896;DHT22;15241;48.374;10.876;2023-12-20T06:40:09;5.80;99.90
27896;DHT22;15241;48.374;10.876;2023-12-20T06:45:10;5.70;99.90
27896;DHT22;15241;48.374;10.876;2023-12-20T06:50:09;5.60;99.90
